Time;durP1;ratioP1;P1;durP2;ratioP2;P2;SDS_P1;SDS_P2;PMS_P1;PMS_P2;Temp;Humidity;BMP_temperature;BMP_pressure;BME280_temperature;BME280_humidity;BME280_pressure;Samples;Min_cycle;Max_cycle;Signal;HPM_P1;HPM_P2
2022/08/02 00:01:50;;;;;;;;;1.75;1.75;;;;;24.72;49.68;101614.44;5109600;27;46410;-62
2022/08/02 00:04:15;;;;;;;;;2.00;1.00;;;;;24.69;50.05;101615.63;5110134;27;45423;-61
2022/08/02 00:06:41;;;;;;;;;3.25;3.00;;;;;24.67;49.95;101623.03;5104313;27;45393;-62
2022/08/02 00:09:07;;;;;;;;;3.75;3.00;;;;;24.69;50.10;101614.78;5108334;27;46235;-61
2022/08/02 00:11:33;;;;;;;;;4.25;3.25;;;;;24.68;50.49;101605.88;5111452;27;45434;-60
2022/08/02 00:13:58;;;;;;;;;3.00;3.00;;;;;24.65;50.17;101611.59;5111080;27;45436;-64
2022/08/02 00:16:24;;;;;;;;;2.25;2.25;;;;;24.62;50.02;101605.66;5105844;27;45559;-62
2022/08/02 00:18:50;;;;;;;;;4.00;3.00;;;;;24.60;50.76;101604.97;5108639;27;45544;-62
2022/08/02 00:21:16;;;;;;;;;2.25;2.25;;;;;24.59;50.71;101604.13;5107827;27;45368;-61
2022/08/02 00:23:41;;;;;;;;;2.25;2.25;;;;;24.58;50.30;101601.63;5111957;27;45247;-62
2022/08/02 00:26:07;;;;;;;;;9.00;7.00;;;;;24.57;50.35;101603.47;5108783;27;45307;-62
2022/08/02 00:28:32;;;;;;;;;3.00;2.25;;;;;24.56;50.84;101599.06;5110397;27;45887;-61
2022/08/02 00:30:58;;;;;;;;;6.25;3.25;;;;;24.53;50.38;101601.25;5085883;27;45465;-62
2022/08/02 00:33:25;;;;;;;;;3.75;2.25;;;;;24.50;50.81;101603.25;5107662;27;45440;-62
2022/08/02 00:35:51;;;;;;;;;3.75;2.00;;;;;24.48;51.08;101599.84;5111750;27;45263;-62
2022/08/02 00:38:16;;;;;;;;;2.00;2.00;;;;;24.45;50.89;101600.19;5107660;27;45277;-60
2022/08/02 00:40:49;;;;;;;;;2.00;2.00;;;;;24.43;50.68;101596.81;5107766;27;45276;-61
2022/08/02 00:43:16;;;;;;;;;4.50;3.00;;;;;24.43;51.24;101604.91;5109616;27;45310;-62
2022/08/02 00:45:42;;;;;;;;;4.25;3.00;;;;;24.42;51.13;101605.06;5102893;27;45585;-62
2022/08/02 00:48:09;;;;;;;;;2.75;2.00;;;;;24.40;51.16;101601.66;5112154;27;45510;-61
2022/08/02 00:50:36;;;;;;;;;3.50;2.00;;;;;24.38;51.15;101606.38;5110520;27;45496;-64
2022/08/02 00:53:01;;;;;;;;;2.00;2.00;;;;;24.36;51.28;101605.69;5109244;27;45311;-61
2022/08/02 00:55:27;;;;;;;;;3.00;3.00;;;;;24.34;50.90;101605.03;5104552;27;45399;-60
2022/08/02 00:57:54;;;;;;;;;4.00;3.00;;;;;24.31;51.33;101602.59;5107772;27;45499;-62
2022/08/02 01:00:20;;;;;;;;;4.50;3.50;;;;;24.31;51.42;101600.75;5111557;27;45329;-60
2022/08/02 01:02:45;;;;;;;;;5.00;4.00;;;;;24.30;51.15;101604.44;5110399;27;45250;-60
2022/08/02 01:05:11;;;;;;;;;3.50;3.50;;;;;24.28;51.27;101611.84;5107410;27;45537;-61
2022/08/02 01:07:37;;;;;;;;;3.25;3.25;;;;;24.28;51.73;101602.94;5109289;27;45941;-62
2022/08/02 01:10:03;;;;;;;;;4.50;3.00;;;;;24.26;51.30;101608.47;5107761;27;45287;-60
2022/08/02 01:12:29;;;;;;;;;2.00;2.00;;;;;24.23;51.30;101609.63;5111126;27;45429;-61
2022/08/02 01:15:00;;;;;;;;;2.75;2.75;;;;;24.20;51.19;101604.56;5109513;27;45275;-50
2022/08/02 01:17:25;;;;;;;;;3.75;3.00;;;;;24.19;52.00;101605.56;5108683;27;46134;-54
2022/08/02 01:20:03;;;;;;;;;1.75;1.75;;;;;24.24;51.81;101605.06;5104697;27;45300;-53
2022/08/02 01:22:45;;;;;;;;;3.75;1.75;;;;;24.35;52.09;101607.56;5107854;27;45322;-49
2022/08/02 01:25:27;;;;;;;;;3.00;3.00;;;;;24.40;51.79;101615.13;5110986;27;45256;-51
2022/08/02 01:28:11;;;;;;;;;2.50;1.75;;;;;24.37;51.54;101610.06;5105505;27;45301;-53
2022/08/02 01:30:41;;;;;;;;;3.00;3.00;;;;;24.30;51.55;101611.69;5105820;27;45268;-53
2022/08/02 01:33:09;;;;;;;;;2.50;2.50;;;;;24.27;51.99;101620.09;5106745;27;45406;-54
2022/08/02 01:35:46;;;;;;;;;3.50;3.50;;;;;24.24;51.53;101632.00;5110718;27;45442;-55
2022/08/02 01:38:38;;;;;;;;;3.50;3.00;;;;;24.23;52.11;101623.09;5109346;27;45449;-52
2022/08/02 01:41:08;;;;;;;;;3.00;3.00;;;;;24.18;51.83;101622.72;5102797;27;45380;-50
2022/08/02 01:43:37;;;;;;;;;3.75;3.75;;;;;24.15;51.50;101620.34;5110710;27;45260;-49
2022/08/02 01:46:04;;;;;;;;;3.25;3.00;;;;;24.16;51.83;101616.63;5109318;27;46354;-56
2022/08/02 01:48:33;;;;;;;;;6.00;4.50;;;;;24.19;52.03;101615.50;5107105;27;45480;-55
2022/08/02 01:51:01;;;;;;;;;5.00;3.25;;;;;24.13;52.14;101619.66;5107490;27;45377;-55
2022/08/02 01:53:29;;;;;;;;;5.75;4.00;;;;;24.10;52.00;101616.44;5093258;27;45311;-52
2022/08/02 01:55:58;;;;;;;;;3.25;3.00;;;;;24.06;51.83;101620.44;5107857;27;45379;-54
2022/08/02 01:58:27;;;;;;;;;6.00;3.75;;;;;24.00;51.92;101618.38;5113682;27;45532;-55
2022/08/02 02:00:56;;;;;;;;;7.25;4.00;;;;;23.97;52.48;101613.31;5113240;27;46672;-55
2022/08/02 02:03:23;;;;;;;;;3.00;3.00;;;;;23.92;52.60;101611.94;5107710;27;45436;-53
2022/08/02 02:05:52;;;;;;;;;5.25;4.50;;;;;23.95;52.17;101611.63;5110039;27;45342;-53
2022/08/02 02:08:25;;;;;;;;;4.50;4.00;;;;;24.02;52.71;101611.84;5114450;27;46365;-54
2022/08/02 02:10:51;;;;;;;;;2.50;2.50;;;;;24.05;52.60;101602.59;5110544;27;45280;-53
2022/08/02 02:13:19;;;;;;;;;3.50;3.00;;;;;24.04;52.50;101609.84;5110741;27;45196;-54
2022/08/02 02:15:46;;;;;;;;;1.50;1.50;;;;;24.06;52.36;101605.13;5110590;27;45512;-56
2022/08/02 02:18:17;;;;;;;;;4.50;3.25;;;;;24.11;52.33;101604.69;5109455;27;45412;-56
2022/08/02 02:20:43;;;;;;;;;4.25;4.00;;;;;24.11;51.95;101593.91;5113917;27;45327;-54
2022/08/02 02:23:11;;;;;;;;;3.00;3.00;;;;;24.04;51.92;101588.31;5113023;27;45290;-57
2022/08/02 02:25:41;;;;;;;;;3.00;3.00;;;;;23.99;52.00;101596.00;5111195;27;45393;-55
2022/08/02 02:28:29;;;;;;;;;3.00;2.75;;;;;23.90;52.14;101600.47;5108354;27;46725;-53
2022/08/02 02:31:06;;;;;;;;;3.50;3.50;;;;;23.84;52.66;101600.25;5111174;27;45527;-55
2022/08/02 02:33:34;;;;;;;;;2.75;2.75;;;;;23.79;52.29;101595.38;5111324;27;45378;-56
2022/08/02 02:36:01;;;;;;;;;2.25;2.25;;;;;23.83;52.91;101596.72;5111784;27;45600;-55
2022/08/02 02:38:30;;;;;;;;;3.50;3.50;;;;;23.88;52.85;101590.88;5114439;27;46180;-56
2022/08/02 02:40:59;;;;;;;;;2.75;2.75;;;;;23.88;52.21;101586.34;5109779;27;45424;-55
2022/08/02 02:43:27;;;;;;;;;3.00;3.00;;;;;23.83;52.31;101585.97;5110380;27;45318;-56
2022/08/02 02:45:55;;;;;;;;;3.50;3.50;;;;;23.84;52.31;101597.56;5108559;27;45537;-55
2022/08/02 02:48:21;;;;;;;;;2.75;2.75;;;;;23.87;52.79;101595.44;5113144;27;45427;-56
2022/08/02 02:50:47;;;;;;;;;3.50;2.75;;;;;23.86;52.04;101588.34;5111989;27;45457;-56
2022/08/02 02:53:17;;;;;;;;;2.00;2.00;;;;;23.83;51.96;101596.72;5109775;27;45343;-56
2022/08/02 02:55:43;;;;;;;;;2.50;2.50;;;;;23.87;52.11;101595.44;5107767;27;45633;-55
2022/08/02 02:58:09;;;;;;;;;2.00;2.00;;;;;23.92;52.01;101590.41;5109557;27;45694;-56
2022/08/02 03:03:20;;;;;;;;;3.00;3.00;;;;;23.91;52.15;101588.72;5109562;27;45441;-57
2022/08/02 03:05:46;;;;;;;;;3.50;3.00;;;;;23.91;51.92;101585.19;5109293;27;45674;-56
2022/08/02 03:08:12;;;;;;;;;3.25;2.50;;;;;23.85;51.96;101578.56;5093836;27;46339;-56
2022/08/02 03:10:38;;;;;;;;;3.75;3.00;;;;;23.80;52.10;101588.13;5113559;27;45912;-56
2022/08/02 03:13:04;;;;;;;;;3.75;3.00;;;;;23.73;51.79;101585.22;5109692;27;45468;-56
2022/08/02 03:15:30;;;;;;;;;2.50;2.00;;;;;23.66;52.08;101586.84;5108848;27;45365;-54
2022/08/02 03:17:56;;;;;;;;;2.25;2.00;;;;;23.63;52.10;101587.16;5106378;27;45223;-56
2022/08/02 03:20:22;;;;;;;;;3.00;3.00;;;;;23.66;51.64;101593.06;5112881;27;45237;-56
2022/08/02 03:22:48;;;;;;;;;5.50;4.00;;;;;23.70;52.12;101585.53;5110630;27;45299;-56
2022/08/02 03:25:15;;;;;;;;;4.00;3.50;;;;;23.66;51.97;101582.31;5110906;27;45457;-56
2022/08/02 03:27:41;;;;;;;;;2.00;2.00;;;;;23.62;51.52;101582.75;5105687;27;46392;-57
2022/08/02 03:30:09;;;;;;;;;4.00;2.75;;;;;23.58;52.31;101584.88;5113276;27;45379;-56
2022/08/02 03:32:37;;;;;;;;;4.25;3.25;;;;;23.58;51.68;101579.50;5110946;27;45257;-56
2022/08/02 03:35:06;;;;;;;;;3.00;2.75;;;;;23.58;52.38;101576.81;5110613;27;45226;-56
2022/08/02 03:37:34;;;;;;;;;4.00;3.25;;;;;23.56;51.79;101578.00;5105901;27;46374;-56
2022/08/02 03:40:00;;;;;;;;;3.75;3.75;;;;;23.52;51.91;101579.28;5110723;27;45329;-55
2022/08/02 03:42:27;;;;;;;;;3.50;2.75;;;;;23.45;52.11;101576.34;5104600;27;45329;-56
2022/08/02 03:44:55;;;;;;;;;3.50;3.25;;;;;23.40;52.26;101584.91;5112709;27;45394;-55
2022/08/02 03:47:23;;;;;;;;;5.50;4.00;;;;;23.36;51.84;101577.28;5111586;27;46164;-56
2022/08/02 03:49:50;;;;;;;;;2.75;2.50;;;;;23.40;52.45;101573.31;5110454;27;45363;-56
2022/08/02 03:52:16;;;;;;;;;4.50;3.25;;;;;23.43;52.13;101573.00;5090267;27;45299;-55
2022/08/02 03:54:42;;;;;;;;;3.25;3.00;;;;;23.39;52.28;101568.94;5108086;27;45307;-56
2022/08/02 03:57:09;;;;;;;;;3.25;3.25;;;;;23.38;52.37;101576.16;5111513;27;45255;-56
2022/08/02 03:59:42;;;;;;;;;4.00;2.00;;;;;23.37;52.15;101576.28;5110621;27;45593;-55
2022/08/02 04:02:08;;;;;;;;;3.00;2.50;;;;;23.34;52.27;101573.91;5109360;27;45382;-56
2022/08/02 04:04:33;;;;;;;;;4.00;4.00;;;;;23.33;52.13;101574.91;5108466;27;45444;-56
2022/08/02 04:06:59;;;;;;;;;3.00;3.00;;;;;23.30;52.64;101570.72;5106646;27;45460;-56
2022/08/02 04:09:24;;;;;;;;;2.50;2.50;;;;;23.27;52.41;101571.00;5112533;27;45313;-55
2022/08/02 04:11:50;;;;;;;;;3.00;3.00;;;;;23.23;52.21;101566.94;5108779;27;45330;-56
2022/08/02 04:14:15;;;;;;;;;5.00;3.75;;;;;23.18;52.30;101571.91;5109602;27;45536;-55
2022/08/02 04:16:45;;;;;;;;;3.50;2.50;;;;;23.17;52.28;101569.38;5106186;27;45384;-56
2022/08/02 04:19:18;;;;;;;;;3.25;3.00;;;;;23.14;52.77;101567.81;5105285;27;45514;-56
2022/08/02 04:21:46;;;;;;;;;4.00;4.00;;;;;23.12;52.66;101567.13;5111799;27;45412;-56
2022/08/02 04:24:16;;;;;;;;;5.00;4.00;;;;;23.08;52.61;101563.94;5108714;27;45293;-55
2022/08/02 04:26:43;;;;;;;;;4.50;2.25;;;;;23.07;52.82;101562.25;5106874;27;45382;-55
2022/08/02 04:29:10;;;;;;;;;3.00;3.00;;;;;23.11;52.82;101563.63;5107858;27;45391;-56
2022/08/02 04:31:36;;;;;;;;;3.50;3.25;;;;;23.11;52.67;101573.50;5112492;27;45227;-56
2022/08/02 04:34:03;;;;;;;;;4.75;3.75;;;;;23.09;52.74;101570.16;5109195;27;45567;-55
2022/08/02 04:36:29;;;;;;;;;3.50;3.50;;;;;23.07;52.52;101577.53;5109790;27;45713;-55
2022/08/02 04:38:54;;;;;;;;;5.25;3.25;;;;;23.07;52.83;101573.00;5110076;27;45392;-56
2022/08/02 04:41:20;;;;;;;;;2.25;2.25;;;;;23.07;52.57;101572.16;5106534;27;45422;-56
2022/08/02 04:43:45;;;;;;;;;5.25;3.00;;;;;23.09;52.75;101571.00;5107479;27;45583;-56
2022/08/02 04:46:11;;;;;;;;;4.25;3.75;;;;;23.09;53.17;101573.69;5111319;27;45967;-56
2022/08/02 04:48:36;;;;;;;;;5.50;4.75;;;;;23.12;52.86;101572.50;5111124;27;45391;-56
2022/08/02 04:51:02;;;;;;;;;5.50;5.00;;;;;23.10;53.30;101570.00;5108136;27;45625;-55
2022/08/02 04:53:27;;;;;;;;;6.50;4.00;;;;;23.05;53.11;101583.03;5107790;27;45505;-57
2022/08/02 04:55:53;;;;;;;;;4.00;4.00;;;;;22.99;53.37;101580.13;5104108;27;45989;-55
2022/08/02 04:58:18;;;;;;;;;3.00;3.00;;;;;22.91;52.97;101574.63;5111422;27;45448;-56
2022/08/02 05:00:44;;;;;;;;;7.50;4.50;;;;;22.86;53.20;101574.25;5109331;27;45535;-56
2022/08/02 05:03:09;;;;;;;;;4.50;2.00;;;;;22.81;53.28;101583.56;5110056;27;45672;-56
2022/08/02 05:05:35;;;;;;;;;8.00;4.75;;;;;22.74;53.53;101581.63;5105627;27;45778;-57
2022/08/02 05:08:00;;;;;;;;;5.00;4.00;;;;;22.73;53.45;101579.94;5107485;27;45420;-56
2022/08/02 05:10:26;;;;;;;;;8.25;3.25;;;;;22.71;53.67;101587.31;5107046;27;45334;-56
2022/08/02 05:12:51;;;;;;;;;5.00;3.00;;;;;22.69;53.66;101578.56;5112105;27;45493;-54
2022/08/02 05:15:17;;;;;;;;;8.25;5.25;;;;;22.68;53.79;101577.72;5109374;27;46092;-57
2022/08/02 05:17:46;;;;;;;;;4.75;3.50;;;;;22.67;53.59;101578.72;5108517;27;45421;-56
2022/08/02 05:20:12;;;;;;;;;6.50;4.00;;;;;22.67;53.20;101572.47;5106905;27;45381;-56
2022/08/02 05:22:38;;;;;;;;;5.50;3.75;;;;;22.70;53.50;101581.09;5106555;27;45517;-57
2022/08/02 05:25:04;;;;;;;;;4.25;4.25;;;;;22.75;53.65;101584.19;5109994;27;46228;-56
2022/08/02 05:27:31;;;;;;;;;5.50;3.25;;;;;22.82;53.62;101584.41;5109978;27;45473;-56
2022/08/02 05:29:57;;;;;;;;;4.00;4.00;;;;;22.82;53.60;101595.16;5106898;27;45289;-56
2022/08/02 05:32:22;;;;;;;;;3.00;3.00;;;;;22.79;53.48;101590.94;5107272;27;45245;-56
2022/08/02 05:34:48;;;;;;;;;4.00;3.75;;;;;22.79;53.75;101593.63;5088014;27;46122;-55
2022/08/02 05:37:13;;;;;;;;;5.00;4.00;;;;;22.82;53.51;101596.00;5109981;27;45384;-54
2022/08/02 05:39:39;;;;;;;;;5.25;5.00;;;;;22.83;53.38;101599.56;5107751;27;45610;-55
2022/08/02 05:42:04;;;;;;;;;5.50;4.00;;;;;22.83;53.55;101596.88;5107285;27;45411;-56
2022/08/02 05:44:30;;;;;;;;;4.00;3.75;;;;;22.83;53.53;101589.66;5107008;27;45985;-56
2022/08/02 05:46:55;;;;;;;;;5.50;5.25;;;;;22.87;53.29;101582.16;5110885;27;45436;-56
2022/08/02 05:49:21;;;;;;;;;4.00;4.00;;;;;22.89;53.76;101593.59;5109285;27;46450;-56
2022/08/02 05:52:11;;;;;;;;;3.75;3.75;;;;;22.91;53.43;101586.25;5108520;27;45501;-56
2022/08/02 05:54:49;;;;;;;;;5.00;4.00;;;;;22.93;53.61;101586.09;5107765;27;45400;-56
2022/08/02 05:57:32;;;;;;;;;5.00;4.00;;;;;22.96;53.51;101586.63;5109020;27;45299;-54
2022/08/02 06:00:08;;;;;;;;;6.75;4.00;;;;;22.99;53.49;101594.41;5108113;27;45532;-56
2022/08/02 06:02:57;;;;;;;;;4.25;4.25;;;;;23.03;53.70;101589.56;5107397;27;45284;-56
2022/08/02 06:05:26;;;;;;;;;5.00;4.75;;;;;23.06;53.40;101587.41;5102250;27;46073;-55
2022/08/02 06:07:57;;;;;;;;;4.00;3.00;;;;;23.18;53.72;101584.50;5106364;27;45228;-57
2022/08/02 06:10:26;;;;;;;;;5.00;4.00;;;;;23.22;53.51;101586.72;5110509;27;45472;-56
2022/08/02 06:13:08;;;;;;;;;5.00;3.75;;;;;23.26;53.36;101585.44;5109879;27;45463;-56
2022/08/02 06:15:37;;;;;;;;;3.50;3.50;;;;;23.30;52.92;101581.47;5106264;27;45607;-56
2022/08/02 06:18:04;;;;;;;;;6.00;6.00;;;;;23.36;53.32;101580.81;5103492;27;45226;-57
2022/08/02 06:20:36;;;;;;;;;5.50;4.75;;;;;23.39;53.06;101580.53;5111180;27;45346;-55
2022/08/02 06:23:05;;;;;;;;;5.00;4.75;;;;;23.44;52.68;101584.59;5110282;27;45568;-57
2022/08/02 06:25:33;;;;;;;;;4.50;3.50;;;;;23.53;53.09;101591.72;5107927;27;46164;-57
2022/08/02 06:28:00;;;;;;;;;5.75;3.75;;;;;23.72;53.04;101591.59;5104543;27;45444;-57
2022/08/02 06:30:27;;;;;;;;;6.50;5.00;;;;;23.92;52.91;101595.78;5109886;27;45462;-57
2022/08/02 06:32:52;;;;;;;;;3.75;3.00;;;;;24.10;52.73;101594.91;5110841;27;45416;-57
2022/08/02 06:35:18;;;;;;;;;5.00;3.00;;;;;24.18;52.10;101598.50;5111858;27;45446;-57
2022/08/02 06:37:49;;;;;;;;;3.00;3.00;;;;;24.26;51.71;101596.88;5111492;27;45513;-57
2022/08/02 06:40:24;;;;;;;;;5.50;4.75;;;;;24.28;52.00;101603.78;5108045;27;45367;-56
2022/08/02 06:42:57;;;;;;;;;5.50;4.00;;;;;24.24;51.99;101592.47;5107246;27;45515;-56
2022/08/02 06:45:23;;;;;;;;;2.50;2.50;;;;;24.24;51.71;101597.00;5113147;27;45404;-57
2022/08/02 06:47:48;;;;;;;;;4.25;2.00;;;;;24.25;51.12;101593.31;5111557;27;45382;-56
2022/08/02 06:50:14;;;;;;;;;8.00;4.00;;;;;24.29;51.64;101601.91;5112255;27;45435;-58
2022/08/02 06:52:40;;;;;;;;;6.00;4.00;;;;;24.31;50.96;101607.97;5108074;27;45566;-57
2022/08/02 06:55:06;;;;;;;;;3.50;3.50;;;;;24.31;51.36;101607.97;5109558;27;45436;-57
2022/08/02 06:57:32;;;;;;;;;4.50;3.00;;;;;24.28;50.50;101608.31;5109388;27;45171;-57
2022/08/02 07:00:03;;;;;;;;;6.75;3.75;;;;;24.24;50.65;101615.84;5113663;27;45388;-56
2022/08/02 07:02:30;;;;;;;;;5.00;4.00;;;;;24.26;50.70;101619.25;5111202;27;45516;-56
2022/08/02 07:04:56;;;;;;;;;4.50;4.00;;;;;24.32;50.33;101626.69;5110477;27;45469;-56
2022/08/02 07:07:22;;;;;;;;;4.25;3.00;;;;;24.33;50.54;101622.16;5107120;27;45358;-57
2022/08/02 07:09:47;;;;;;;;;5.00;4.00;;;;;24.31;50.35;101616.91;5113186;27;45413;-57
2022/08/02 07:12:13;;;;;;;;;6.50;3.75;;;;;24.32;50.70;101621.31;5109312;27;45569;-56
2022/08/02 07:14:38;;;;;;;;;2.00;1.25;;;;;24.40;50.52;101625.91;5112657;27;45320;-57
2022/08/02 07:17:04;;;;;;;;;5.50;3.00;;;;;24.47;50.20;101611.66;5108386;27;45234;-57
2022/08/02 07:19:29;;;;;;;;;3.50;3.00;;;;;24.56;50.55;101609.81;5109666;27;45299;-57
2022/08/02 07:21:54;;;;;;;;;3.25;3.25;;;;;24.71;50.50;101615.47;5109540;27;45396;-58
2022/08/02 07:24:20;;;;;;;;;4.25;4.25;;;;;24.83;50.47;101614.19;5113232;27;45437;-57
2022/08/02 07:26:45;;;;;;;;;3.75;3.50;;;;;24.92;49.82;101617.75;5110137;27;45320;-57
2022/08/02 07:29:11;;;;;;;;;4.25;4.25;;;;;24.94;49.67;101619.25;5111058;27;45472;-56
2022/08/02 07:31:36;;;;;;;;;7.00;4.25;;;;;24.91;49.38;101627.69;5107149;27;45314;-58
2022/08/02 07:34:02;;;;;;;;;4.00;3.75;;;;;24.87;49.34;101628.16;5108072;27;45389;-57
2022/08/02 07:36:27;;;;;;;;;4.25;4.25;;;;;24.76;49.13;101624.75;5112645;27;45327;-56
2022/08/02 07:38:53;;;;;;;;;5.25;3.50;;;;;24.67;49.58;101620.34;5111094;27;45409;-57
2022/08/02 07:41:18;;;;;;;;;6.00;4.00;;;;;24.62;49.79;101624.50;5106121;27;45294;-57
2022/08/02 07:43:44;;;;;;;;;7.00;4.00;;;;;24.57;49.66;101618.75;5112304;27;45901;-58
2022/08/02 07:46:09;;;;;;;;;3.75;3.00;;;;;24.56;49.67;101617.06;5110094;27;45670;-57
2022/08/02 07:48:35;;;;;;;;;4.00;3.75;;;;;24.53;49.45;101615.56;5110038;27;45189;-57
2022/08/02 07:51:00;;;;;;;;;9.75;4.00;;;;;24.55;49.58;101620.78;5105455;27;45290;-57
2022/08/02 07:53:25;;;;;;;;;3.00;2.50;;;;;24.64;49.46;101620.66;5110848;27;46052;-57
2022/08/02 07:55:51;;;;;;;;;6.25;4.25;;;;;24.75;49.60;101620.38;5112654;27;45405;-57
2022/08/02 07:58:16;;;;;;;;;3.00;3.00;;;;;24.81;49.16;101618.91;5112592;27;45572;-56
2022/08/02 08:00:43;;;;;;;;;3.00;3.00;;;;;24.78;49.43;101613.81;5108965;27;45537;-57
2022/08/02 08:03:08;;;;;;;;;4.00;2.50;;;;;24.76;49.06;101613.97;5108642;27;45243;-56
2022/08/02 08:05:34;;;;;;;;;7.25;5.00;;;;;24.79;49.55;101615.50;5110127;27;45372;-56
2022/08/02 08:07:59;;;;;;;;;8.25;3.75;;;;;24.87;49.67;101618.22;5112346;27;45164;-56
2022/08/02 08:10:24;;;;;;;;;5.50;4.00;;;;;24.86;48.87;101619.22;5108878;27;45227;-55
2022/08/02 08:12:50;;;;;;;;;4.50;4.00;;;;;24.91;49.04;101621.44;5109211;27;45329;-56
2022/08/02 08:15:15;;;;;;;;;3.00;3.00;;;;;24.94;48.84;101615.72;5104851;27;45372;-57
2022/08/02 08:17:41;;;;;;;;;4.50;2.75;;;;;24.90;49.17;101617.91;5111571;27;45433;-57
2022/08/02 08:20:07;;;;;;;;;13.75;12.50;;;;;24.89;49.22;101612.69;5110689;27;45511;-57
2022/08/02 08:22:32;;;;;;;;;7.50;4.00;;;;;24.88;48.73;101613.66;5110262;27;45258;-55
2022/08/02 08:24:57;;;;;;;;;3.75;2.00;;;;;24.88;48.65;101605.59;5107231;27;45384;-57
2022/08/02 08:27:23;;;;;;;;;2.00;2.00;;;;;24.94;49.30;101607.63;5107396;27;45534;-57
2022/08/02 08:29:49;;;;;;;;;5.00;4.75;;;;;25.05;48.49;101605.53;5110925;27;45484;-57
2022/08/02 08:32:14;;;;;;;;;5.00;3.00;;;;;25.11;48.86;101598.59;5107950;27;45552;-57
2022/08/02 08:34:40;;;;;;;;;5.75;2.25;;;;;25.16;49.02;101604.38;5107934;27;45493;-57
2022/08/02 08:37:06;;;;;;;;;4.50;3.50;;;;;25.21;48.27;101598.50;5107951;27;45430;-57
2022/08/02 08:39:31;;;;;;;;;3.00;2.25;;;;;25.22;48.18;101595.63;5107506;27;45416;-57
2022/08/02 08:41:57;;;;;;;;;5.25;4.00;;;;;25.29;48.10;101601.19;5110779;27;45861;-57
2022/08/02 08:44:22;;;;;;;;;5.75;4.00;;;;;25.31;47.78;101597.31;5111352;27;45423;-57
2022/08/02 08:46:49;;;;;;;;;5.75;5.00;;;;;25.34;48.29;101596.13;5109643;27;45412;-57
2022/08/02 08:49:30;;;;;;;;;5.00;4.00;;;;;25.37;48.09;101603.06;5107247;27;45257;-57
2022/08/02 08:51:59;;;;;;;;;4.25;4.00;;;;;25.37;47.60;101601.22;5106901;27;46236;-56
2022/08/02 08:54:27;;;;;;;;;5.00;3.75;;;;;25.38;47.79;101607.44;5110925;27;45756;-57
2022/08/02 08:56:54;;;;;;;;;5.75;5.00;;;;;25.40;48.13;101600.88;5107652;27;45385;-56
2022/08/02 08:59:19;;;;;;;;;6.50;3.50;;;;;25.47;47.62;101601.88;5109229;27;45299;-56
2022/08/02 09:01:45;;;;;;;;;4.50;4.50;;;;;25.50;47.87;101603.41;5104186;27;45338;-57
2022/08/02 09:04:11;;;;;;;;;4.75;4.75;;;;;25.52;47.71;101598.69;5111033;27;45448;-56
2022/08/02 09:06:38;;;;;;;;;6.25;4.75;;;;;25.53;47.65;101598.53;5091718;27;45505;-57
2022/08/02 09:09:04;;;;;;;;;4.25;4.00;;;;;25.59;47.75;101592.47;5110361;27;45294;-57
2022/08/02 09:11:29;;;;;;;;;4.50;3.00;;;;;25.67;47.61;101591.59;5105369;27;45327;-57
2022/08/02 09:13:59;;;;;;;;;6.50;5.25;;;;;25.72;47.69;101589.28;5107163;27;45433;-57
2022/08/02 09:16:40;;;;;;;;;4.75;3.25;;;;;25.73;47.28;101587.41;5106802;27;45353;-57
2022/08/02 09:19:23;;;;;;;;;4.00;3.50;;;;;25.76;47.38;101590.63;5109316;27;45374;-57
2022/08/02 09:21:51;;;;;;;;;5.25;4.75;;;;;25.80;47.17;101591.97;5108402;27;45269;-57
2022/08/02 09:24:18;;;;;;;;;7.50;4.75;;;;;25.85;47.11;101586.06;5107346;27;45329;-56
2022/08/02 09:26:44;;;;;;;;;8.50;4.25;;;;;25.89;47.07;101592.81;5087332;27;45332;-57
2022/08/02 09:29:10;;;;;;;;;5.75;4.75;;;;;25.95;47.30;101589.44;5106804;27;45243;-58
2022/08/02 09:31:35;;;;;;;;;5.00;5.00;;;;;26.00;46.66;101586.22;5106432;27;46369;-56
2022/08/02 09:34:01;;;;;;;;;3.00;3.00;;;;;26.05;46.96;101581.97;5110694;27;45464;-50
2022/08/02 09:36:37;;;;;;;;;5.50;3.25;;;;;26.15;46.82;101576.41;5106697;27;45646;-54
2022/08/02 09:39:05;;;;;;;;;4.50;4.00;;;;;26.21;46.82;101581.09;5106762;27;45298;-54
2022/08/02 09:41:32;;;;;;;;;6.50;5.00;;;;;26.26;46.72;101581.44;5110644;27;45438;-56
2022/08/02 09:43:59;;;;;;;;;5.00;3.00;;;;;26.31;46.71;101583.63;5106249;27;45349;-55
2022/08/02 09:46:28;;;;;;;;;5.75;4.50;;;;;26.35;46.51;101577.69;5109152;27;45321;-53
2022/08/02 09:48:54;;;;;;;;;4.50;4.00;;;;;26.39;46.46;101572.84;5104126;27;45408;-55
2022/08/02 09:51:33;;;;;;;;;4.00;4.00;;;;;26.45;46.46;101569.41;5106483;27;45366;-54
2022/08/02 09:54:01;;;;;;;;;4.50;4.00;;;;;26.56;46.28;101577.16;5107046;27;45691;-56
2022/08/02 09:56:28;;;;;;;;;4.75;4.00;;;;;26.64;46.06;101566.31;5108885;27;45455;-55
2022/08/02 09:58:55;;;;;;;;;5.50;3.75;;;;;26.70;46.03;101564.72;5107510;27;45474;-55
2022/08/02 10:01:31;;;;;;;;;8.25;5.00;;;;;26.80;45.91;101565.38;5106221;27;46180;-52
2022/08/02 10:04:05;;;;;;;;;3.75;3.75;;;;;26.90;45.98;101562.44;5109868;27;45360;-53
2022/08/02 10:06:32;;;;;;;;;4.50;4.00;;;;;27.02;45.90;101565.56;5112947;27;45410;-54
2022/08/02 10:08:58;;;;;;;;;6.75;5.50;;;;;27.11;45.60;101561.84;5110715;27;45331;-55
2022/08/02 10:11:26;;;;;;;;;6.75;6.00;;;;;27.15;45.17;101552.34;5109858;27;46085;-54
2022/08/02 10:13:53;;;;;;;;;3.25;3.25;;;;;27.18;45.09;101557.41;5109599;27;45216;-54
2022/08/02 10:16:22;;;;;;;;;7.00;3.75;;;;;27.24;45.17;101562.09;5109605;27;45231;-52
2022/08/02 10:18:50;;;;;;;;;4.25;3.25;;;;;27.27;44.83;101559.03;5113615;27;45399;-55
2022/08/02 10:21:22;;;;;;;;;3.75;3.75;;;;;27.29;44.80;101556.16;5108423;27;45372;-55
2022/08/02 10:23:49;;;;;;;;;3.25;3.25;;;;;27.31;44.87;101559.50;5110713;27;45361;-54
2022/08/02 10:26:17;;;;;;;;;4.00;4.00;;;;;27.33;44.65;101555.59;5104229;27;45299;-55
2022/08/02 10:28:46;;;;;;;;;7.25;5.25;;;;;27.38;44.60;101566.72;5113623;27;45282;-49
2022/08/02 10:31:15;;;;;;;;;6.75;5.00;;;;;27.45;44.61;101558.72;5112853;27;47360;-57
2022/08/02 10:33:43;;;;;;;;;7.50;3.25;;;;;27.50;44.25;101559.88;5111277;27;45767;-55
2022/08/02 10:36:09;;;;;;;;;3.75;3.75;;;;;27.57;44.18;101551.88;5105917;27;45423;-57
2022/08/02 10:38:36;;;;;;;;;5.00;5.00;;;;;27.61;43.87;101555.03;5114054;27;45446;-57
2022/08/02 10:41:01;;;;;;;;;3.75;3.75;;;;;27.67;43.96;101557.06;5108355;27;45393;-55
2022/08/02 10:43:30;;;;;;;;;8.50;5.50;;;;;27.72;43.78;101557.31;5111665;27;45330;-55
2022/08/02 10:46:22;;;;;;;;;3.50;3.50;;;;;27.78;43.47;101557.44;5110446;27;45240;-56
2022/08/02 10:49:08;;;;;;;;;3.00;2.75;;;;;27.87;43.56;101552.78;5108722;27;45313;-51
2022/08/02 10:52:02;;;;;;;;;4.25;3.00;;;;;27.95;42.63;101557.28;5113392;27;45322;-57
2022/08/02 10:54:30;;;;;;;;;3.25;3.00;;;;;28.01;42.53;101549.25;5111400;27;46267;-54
2022/08/02 10:56:57;;;;;;;;;2.50;1.50;;;;;28.09;42.15;101548.31;5110605;27;45501;-57
2022/08/02 10:59:31;;;;;;;;;4.00;4.00;;;;;28.20;42.46;101547.00;5111419;27;45520;-56
2022/08/02 11:02:02;;;;;;;;;3.00;3.00;;;;;28.26;42.23;101547.09;5101409;27;45622;-58
2022/08/02 11:04:28;;;;;;;;;4.75;3.50;;;;;28.28;41.88;101544.19;5110194;27;45518;-56
2022/08/02 11:07:14;;;;;;;;;3.00;3.00;;;;;28.32;41.40;101540.13;5111404;27;45513;-56
2022/08/02 11:09:41;;;;;;;;;3.75;3.75;;;;;28.35;41.59;101540.59;5105530;27;46022;-57
2022/08/02 11:12:12;;;;;;;;;3.00;3.00;;;;;28.38;40.81;101531.25;5110649;27;46238;-55
2022/08/02 11:14:41;;;;;;;;;6.75;3.00;;;;;28.42;40.54;101534.41;5106659;27;45405;-56
2022/08/02 11:17:09;;;;;;;;;5.75;4.00;;;;;28.47;40.94;101530.13;5111697;27;45588;-56
2022/08/02 11:20:07;;;;;;;;;4.00;2.50;;;;;28.55;40.33;101529.19;5110168;27;45627;-55
2022/08/02 11:22:33;;;;;;;;;3.50;3.00;;;;;28.61;39.97;101533.84;5110129;27;45374;-57
2022/08/02 11:25:21;;;;;;;;;3.75;2.25;;;;;28.68;40.62;101531.22;5108459;27;45501;-56
2022/08/02 11:27:47;;;;;;;;;5.25;5.25;;;;;28.71;40.48;101530.81;5111345;27;45227;-56
2022/08/02 11:30:14;;;;;;;;;4.00;3.00;;;;;28.75;40.37;101510.41;5112469;27;45778;-54
2022/08/02 11:32:40;;;;;;;;;3.25;3.25;;;;;28.81;40.30;101524.06;5108179;27;45481;-57